Time;durP1;ratioP1;P1;durP2;ratioP2;P2;SDS_P1;SDS_P2;PMS_P1;PMS_P2;Temp;Humidity;BMP_temperature;BMP_pressure;BME280_temperature;BME280_humidity;BME280_pressure;Samples;Min_cycle;Max_cycle;Signal;HPM_P1;HPM_P2
2022/05/29 00:01:37;;;;;;;2.30;1.25;;;;;;;12.71;57.17;96403.84;4926690;29;20064;-80
2022/05/29 00:04:05;;;;;;;1.92;1.40;;;;;;;12.81;57.03;96402.66;4923232;29;20079;-80
2022/05/29 00:06:38;;;;;;;1.88;1.42;;;;;;;12.89;58.62;96405.06;4924048;29;20076;-80
2022/05/29 00:09:06;;;;;;;4.13;1.48;;;;;;;12.96;58.39;96405.88;4922854;29;20048;-80
2022/05/29 00:11:35;;;;;;;3.30;2.10;;;;;;;13.01;57.37;96398.25;4920938;29;20496;-81
2022/05/29 00:14:03;;;;;;;2.90;1.92;;;;;;;13.03;56.25;96396.22;4921435;29;20054;-81
2022/05/29 00:16:33;;;;;;;4.28;2.17;;;;;;;13.06;58.13;96401.03;4919790;29;20052;-80
2022/05/29 00:19:01;;;;;;;3.38;2.30;;;;;;;13.05;56.06;96399.41;4920709;29;20108;-80
2022/05/29 00:21:29;;;;;;;2.78;2.10;;;;;;;13.03;55.62;96404.09;4919602;29;20062;-80
2022/05/29 00:23:57;;;;;;;2.53;2.03;;;;;;;13.00;55.91;96396.59;4919899;29;20051;-81
2022/05/29 00:26:25;;;;;;;2.47;1.88;;;;;;;13.04;58.35;96407.50;4919554;29;20052;-81
2022/05/29 00:28:52;;;;;;;3.10;2.50;;;;;;;13.07;58.20;96397.41;4919470;29;20520;-80
2022/05/29 00:31:20;;;;;;;4.25;2.50;;;;;;;13.08;55.91;96399.03;4928740;29;20056;-81
2022/05/29 00:33:49;;;;;;;5.88;2.80;;;;;;;12.98;55.39;96403.84;4921604;29;20084;-80
2022/05/29 00:36:17;;;;;;;5.00;3.35;;;;;;;12.86;55.62;96397.63;4921057;29;20060;-80
2022/05/29 00:38:47;;;;;;;4.88;3.15;;;;;;;12.81;55.67;96392.97;4923308;29;20048;-81
2022/05/29 00:41:21;;;;;;;4.43;2.33;;;;;;;12.82;57.85;96405.06;4930594;29;20120;-80
2022/05/29 00:44:13;;;;;;;4.20;2.10;;;;;;;12.88;58.31;96399.03;4922308;29;20111;-81
2022/05/29 00:46:45;;;;;;;3.08;2.50;;;;;;;12.94;58.08;96395.63;4921265;29;20134;-81
2022/05/29 00:49:15;;;;;;;2.47;2.20;;;;;;;13.00;58.86;96391.38;4922724;29;20431;-80
2022/05/29 00:51:47;;;;;;;3.20;2.70;;;;;;;13.03;56.95;96396.22;4922224;29;20076;-80
2022/05/29 00:54:16;;;;;;;2.63;2.35;;;;;;;13.04;56.71;96392.59;4931037;29;20050;-80
2022/05/29 00:56:44;;;;;;;3.08;2.53;;;;;;;13.01;55.79;96384.31;4921058;29;20108;-81
2022/05/29 00:59:16;;;;;;;2.60;2.40;;;;;;;12.93;55.64;96386.13;4921848;29;20048;-81
2022/05/29 01:01:44;;;;;;;4.55;2.65;;;;;;;12.90;55.59;96390.97;4921503;29;20062;-80
2022/05/29 01:04:14;;;;;;;2.63;2.20;;;;;;;12.91;57.79;96390.78;4922047;29;20107;-80
2022/05/29 01:06:41;;;;;;;2.70;2.40;;;;;;;12.95;56.38;96380.72;4920305;29;20048;-80
2022/05/29 01:09:10;;;;;;;3.28;2.30;;;;;;;12.97;56.83;96376.09;4920579;29;20066;-80
2022/05/29 01:11:52;;;;;;;3.13;2.33;;;;;;;12.98;57.31;96378.47;4920185;29;20048;-80
2022/05/29 01:14:27;;;;;;;4.03;2.55;;;;;;;12.99;56.47;96379.31;4919629;29;20148;-79
2022/05/29 01:17:05;;;;;;;5.32;2.85;;;;;;;12.95;56.33;96378.09;4918819;29;20111;-81
2022/05/29 01:19:52;;;;;;;2.85;2.25;;;;;;;12.91;57.14;96369.81;4919569;29;20060;-80
2022/05/29 01:22:41;;;;;;;5.47;2.78;;;;;;;12.93;57.13;96367.81;4919055;29;20052;-79
2022/05/29 01:25:36;;;;;;;3.15;2.60;;;;;;;12.96;59.96;96364.78;4919634;29;20124;-80
2022/05/29 01:28:11;;;;;;;3.10;2.58;;;;;;;12.99;57.94;96358.34;4919336;29;20056;-81
2022/05/29 01:30:45;;;;;;;2.83;2.50;;;;;;;12.98;57.93;96357.53;4919576;29;20500;-81
2022/05/29 01:33:34;;;;;;;4.53;2.75;;;;;;;13.03;59.16;96348.25;4919275;29;20107;-80
2022/05/29 01:36:07;;;;;;;5.18;2.58;;;;;;;12.98;56.64;96341.03;4918703;29;20052;-80
2022/05/29 01:38:41;;;;;;;5.32;3.00;;;;;;;12.91;57.07;96343.66;4918562;29;20055;-79
2022/05/29 01:41:13;;;;;;;4.13;3.05;;;;;;;12.83;57.52;96337.81;4918098;29;20052;-80
2022/05/29 01:43:45;;;;;;;;;;;;;;;12.78;57.34;96331.38;4918279;29;20508;-81
2022/05/29 01:46:18;;;;;;;4.35;2.92;;;;;;;12.70;57.96;96336.81;4917738;29;19923;-81
2022/05/29 01:48:53;;;;;;;2.95;2.60;;;;;;;12.72;60.07;96340.03;4918636;29;20048;-79
2022/05/29 01:51:23;;;;;;;4.40;2.83;;;;;;;12.76;59.31;96328.16;4919241;29;20071;-80
2022/05/29 01:53:59;;;;;;;6.07;2.83;;;;;;;12.83;59.25;96332.56;4918711;29;20058;-80
2022/05/29 01:56:31;;;;;;;2.55;2.35;;;;;;;12.86;60.96;96326.97;4918985;29;20062;-79
2022/05/29 01:59:05;;;;;;;3.60;2.80;;;;;;;12.90;60.18;96322.91;4937826;29;20108;-79
2022/05/29 02:01:37;;;;;;;3.88;2.70;;;;;;;12.95;59.26;96325.72;4937854;29;20060;-79
2022/05/29 02:04:09;;;;;;;4.78;2.35;;;;;;;12.96;60.62;96322.09;4937678;29;20040;-80
2022/05/29 02:09:32;;;;;;;2.35;2.20;;;;;;;12.99;58.96;96321.69;4918084;29;20074;-80
2022/05/29 02:12:01;;;;;;;3.92;2.90;;;;;;;12.97;58.30;96310.63;4919251;29;20056;-80
2022/05/29 02:14:36;;;;;;;3.55;2.90;;;;;;;12.94;57.86;96303.16;4926536;29;20565;-80
2022/05/29 02:17:09;;;;;;;3.33;2.67;;;;;;;12.93;58.24;96296.34;4939098;23;20056;-79
2022/05/29 02:19:39;;;;;;;;;;;;;;;12.94;58.10;96293.53;4916098;29;20059;-79
2022/05/29 02:22:09;;;;;;;4.45;2.72;;;;;;;12.90;57.31;96291.47;4915677;29;19923;-77
2022/05/29 02:24:40;;;;;;;4.10;3.22;;;;;;;12.83;57.64;96294.13;4916004;29;20058;-79
2022/05/29 02:27:14;;;;;;;4.50;3.45;;;;;;;12.78;57.94;96299.97;4915159;29;20072;-79
2022/05/29 02:29:43;;;;;;;3.58;2.47;;;;;;;12.74;58.48;96293.50;4915870;29;20060;-79
2022/05/29 02:32:21;;;;;;;3.15;2.85;;;;;;;12.75;59.08;96295.13;4915704;29;20080;-78
2022/05/29 02:35:00;;;;;;;2.88;2.58;;;;;;;12.76;58.89;96286.28;4915908;29;20398;-79
2022/05/29 02:37:33;;;;;;;4.53;3.08;;;;;;;12.76;58.71;96293.31;4915173;29;20568;-79
2022/05/29 02:40:11;;;;;;;3.88;2.55;;;;;;;12.76;59.14;96283.66;4915798;29;20428;-79
2022/05/29 02:42:42;;;;;;;3.35;2.55;;;;;;;12.76;58.90;96286.28;4915623;29;20449;-79
2022/05/29 02:45:21;;;;;;;3.38;2.10;;;;;;;12.80;58.30;96288.50;4916019;29;20052;-79
2022/05/29 02:47:59;;;;;;;4.50;3.15;;;;;;;12.72;57.71;96290.28;4914760;29;20056;-79
2022/05/29 02:50:35;;;;;;;3.25;2.05;;;;;;;12.67;58.17;96297.16;4915550;29;20052;-78
2022/05/29 02:53:12;;;;;;;2.05;1.70;;;;;;;12.65;57.42;96296.56;4918524;29;20055;-79
2022/05/29 02:55:41;;;;;;;5.55;1.98;;;;;;;12.66;59.32;96291.13;4919167;29;20051;-79
2022/05/29 02:58:18;;;;;;;3.80;2.28;;;;;;;12.66;57.63;96288.50;4918356;29;20060;-79
2022/05/29 03:01:03;;;;;;;2.30;2.13;;;;;;;12.67;58.62;96282.25;4918901;29;20071;-79
2022/05/29 03:03:35;;;;;;;4.53;2.40;;;;;;;12.72;59.39;96274.59;4918651;29;20481;-78
2022/05/29 03:06:17;;;;;;;4.25;2.47;;;;;;;12.76;57.22;96275.00;4918006;29;20512;-79
2022/05/29 03:08:56;;;;;;;4.47;2.53;;;;;;;12.79;59.99;96274.63;4918836;29;20052;-78
2022/05/29 03:11:34;;;;;;;3.78;2.20;;;;;;;12.84;59.90;96272.19;4918727;29;20432;-79
2022/05/29 03:14:06;;;;;;;3.00;2.30;;;;;;;12.88;60.42;96272.56;4918673;29;20052;-79
2022/05/29 03:16:43;;;;;;;3.15;2.05;;;;;;;12.93;60.84;96270.94;4917935;29;20052;-79
2022/05/29 03:19:21;;;;;;;2.20;1.90;;;;;;;12.97;59.56;96266.13;4918483;29;20048;-79
2022/05/29 03:21:56;;;;;;;5.35;2.50;;;;;;;13.00;57.41;96260.47;4919419;29;20056;-79
2022/05/29 03:24:29;;;;;;;3.53;2.00;;;;;;;13.02;58.58;96262.88;4918504;29;20058;-79
2022/05/29 03:27:03;;;;;;;4.07;2.15;;;;;;;13.01;56.98;96256.03;4917835;29;20140;-79
2022/05/29 03:29:37;;;;;;;2.60;1.75;;;;;;;13.00;56.93;96255.22;4918153;29;20044;-79
2022/05/29 03:32:08;;;;;;;3.25;2.10;;;;;;;13.00;58.53;96255.22;4918263;29;20048;-79
2022/05/29 03:34:36;;;;;;;2.85;2.10;;;;;;;12.99;56.22;96258.88;4918191;29;20052;-79
2022/05/29 03:37:06;;;;;;;3.97;2.35;;;;;;;12.95;56.01;96257.66;4917301;29;20048;-79
2022/05/29 03:39:33;;;;;;;3.38;2.20;;;;;;;12.94;55.72;96261.28;4918171;29;20440;-78
2022/05/29 03:42:01;;;;;;;2.30;2.10;;;;;;;12.91;55.62;96252.03;4918136;29;20048;-79
2022/05/29 03:44:28;;;;;;;2.80;1.77;;;;;;;12.94;57.81;96251.63;4918044;29;20505;-79
2022/05/29 03:46:56;;;;;;;3.97;2.50;;;;;;;12.94;56.49;96250.81;4926887;29;20056;-79
2022/05/29 03:49:26;;;;;;;3.45;2.42;;;;;;;12.94;56.84;96251.63;4937841;29;20058;-79
2022/05/29 03:51:53;;;;;;;6.43;2.22;;;;;;;12.93;56.31;96250.00;4936157;29;20127;-79
2022/05/29 03:54:21;;;;;;;3.95;2.25;;;;;;;12.90;57.78;96244.38;4918066;29;20059;-79
2022/05/29 03:56:49;;;;;;;3.45;2.17;;;;;;;12.91;57.60;96243.38;4917241;29;20401;-79
2022/05/29 03:59:16;;;;;;;3.83;2.60;;;;;;;12.91;56.97;96249.41;4918096;29;20044;-79
2022/05/29 04:01:44;;;;;;;5.70;2.58;;;;;;;12.88;56.66;96246.38;4917711;29;20090;-79
2022/05/29 04:04:11;;;;;;;4.05;1.92;;;;;;;12.78;56.38;96241.59;4916900;29;20405;-79
2022/05/29 04:06:40;;;;;;;4.13;2.42;;;;;;;12.66;56.45;96246.63;4917121;29;20350;-78
2022/05/29 04:12:07;;;;;;;2.58;2.10;;;;;;;12.48;56.57;96241.22;4917532;29;20056;-79
2022/05/29 04:14:37;;;;;;;3.88;2.33;;;;;;;12.45;56.76;96246.84;4918232;29;20522;-79
2022/05/29 04:17:05;;;;;;;3.05;1.92;;;;;;;12.45;56.85;96241.63;4917054;29;20062;-79
2022/05/29 04:19:33;;;;;;;4.05;2.00;;;;;;;12.43;56.59;96241.81;4917631;29;20052;-77
2022/05/29 04:22:07;;;;;;;3.28;2.22;;;;;;;12.43;56.74;96244.44;4917545;29;20047;-78
2022/05/29 04:24:34;;;;;;;3.78;1.90;;;;;;;12.39;56.34;96234.56;4917200;29;20554;-79
2022/05/29 04:27:02;;;;;;;2.45;2.13;;;;;;;12.33;56.64;96234.38;4916539;29;20054;-79
2022/05/29 04:29:29;;;;;;;5.93;2.03;;;;;;;12.34;56.57;96233.38;4928828;29;20052;-79
2022/05/29 04:34:44;;;;;;;2.63;2.00;;;;;;;12.32;55.77;96229.34;4932384;29;20055;-79
2022/05/29 04:37:13;;;;;;;2.13;1.55;;;;;;;12.31;55.66;96228.56;4931612;29;20071;-79
2022/05/29 04:39:40;;;;;;;2.40;1.40;;;;;;;12.36;57.68;96228.75;4932702;29;20048;-79
2022/05/29 04:42:08;;;;;;;2.95;1.58;;;;;;;12.43;57.77;96218.28;4933595;29;20048;-79
2022/05/29 04:44:36;;;;;;;2.10;1.88;;;;;;;12.49;57.38;96224.53;4931836;29;20055;-79
2022/05/29 04:47:04;;;;;;;3.40;1.30;;;;;;;12.56;57.63;96222.69;4926743;29;20049;-79
2022/05/29 04:49:32;;;;;;;3.67;1.80;;;;;;;12.58;57.46;96220.69;4918325;29;20047;-79
2022/05/29 04:52:00;;;;;;;2.70;1.60;;;;;;;12.62;56.65;96224.50;4917725;29;20052;-79
2022/05/29 04:54:29;;;;;;;1.98;1.70;;;;;;;12.64;56.87;96221.66;4918958;29;20062;-79
2022/05/29 04:56:56;;;;;;;1.35;1.20;;;;;;;12.65;56.53;96226.69;4917257;29;20451;-79
2022/05/29 04:59:24;;;;;;;3.42;1.70;;;;;;;12.66;55.58;96211.78;4917657;29;20472;-79
2022/05/29 05:01:52;;;;;;;7.07;1.60;;;;;;;12.62;54.00;96213.25;4917688;29;20062;-79
2022/05/29 05:04:20;;;;;;;2.97;1.85;;;;;;;12.57;53.63;96213.81;4918928;29;20058;-79
2022/05/29 05:06:47;;;;;;;3.13;1.55;;;;;;;12.55;53.15;96213.22;4917074;29;20048;-79
2022/05/29 05:09:15;;;;;;;2.03;1.25;;;;;;;12.52;52.34;96211.03;4917578;29;20048;-79
2022/05/29 05:11:44;;;;;;;4.03;1.33;;;;;;;12.51;53.25;96214.66;4917195;29;20080;-79
2022/05/29 05:14:11;;;;;;;3.25;1.60;;;;;;;12.56;54.43;96217.47;4926018;29;20143;-79
2022/05/29 05:16:39;;;;;;;1.15;0.90;;;;;;;12.63;55.06;96222.69;4932288;29;20052;-79
2022/05/29 05:19:07;;;;;;;1.95;1.05;;;;;;;12.68;55.07;96218.47;4930392;29;20048;-79
2022/05/29 05:21:34;;;;;;;3.20;1.35;;;;;;;12.74;54.52;96215.00;4918478;29;20048;-79
2022/05/29 05:24:09;;;;;;;5.10;1.70;;;;;;;12.78;54.95;96218.81;4917542;29;20056;-79
2022/05/29 05:26:36;;;;;;;1.90;1.15;;;;;;;12.84;56.49;96221.66;4916240;29;20054;-79
2022/05/29 05:29:05;;;;;;;2.65;1.25;;;;;;;12.87;56.30;96223.84;4916789;29;20052;-79
2022/05/29 05:31:33;;;;;;;1.67;1.40;;;;;;;12.91;56.84;96225.84;4916328;29;20055;-79
2022/05/29 05:34:02;;;;;;;8.70;1.63;;;;;;;12.94;54.48;96229.84;4916626;29;20052;-78
2022/05/29 05:36:30;;;;;;;3.28;1.70;;;;;;;12.93;53.59;96226.44;4916351;29;20056;-79
2022/05/29 05:38:57;;;;;;;2.72;1.40;;;;;;;12.92;55.03;96227.47;4914998;29;20060;-79
2022/05/29 05:41:25;;;;;;;2.58;1.40;;;;;;;12.95;55.12;96227.03;4914717;29;20072;-79
2022/05/29 05:43:53;;;;;;;2.60;1.50;;;;;;;12.97;54.71;96226.84;4917599;29;20509;-79
2022/05/29 05:46:22;;;;;;;2.95;1.60;;;;;;;13.01;53.96;96227.22;4916996;29;20078;-78
2022/05/29 05:48:49;;;;;;;3.47;1.88;;;;;;;13.03;53.86;96223.41;4915928;29;20056;-78
2022/05/29 05:51:17;;;;;;;2.28;1.80;;;;;;;13.06;55.72;96223.00;4915916;29;20052;-78
2022/05/29 05:53:45;;;;;;;2.35;1.65;;;;;;;13.08;54.23;96228.81;4916316;29;20060;-78
2022/05/29 05:56:14;;;;;;;2.55;1.70;;;;;;;13.11;54.14;96231.03;4900482;29;20058;-80
2022/05/29 05:58:43;;;;;;;2.88;1.50;;;;;;;13.13;53.97;96239.47;4916396;29;20048;-79
2022/05/29 06:01:15;;;;;;;4.18;1.63;;;;;;;13.13;53.95;96249.94;4909604;29;20074;-79
2022/05/29 06:03:45;;;;;;;2.03;1.40;;;;;;;13.14;53.75;96251.56;4896342;29;20100;-79
2022/05/29 06:06:13;;;;;;;1.80;1.40;;;;;;;13.12;52.95;96248.34;4914106;29;20456;-79
2022/05/29 06:08:41;;;;;;;5.30;1.30;;;;;;;13.13;53.66;96249.16;4916255;29;20052;-78
2022/05/29 06:11:08;;;;;;;2.38;1.40;;;;;;;13.12;53.05;96248.34;4900465;29;20413;-78
2022/05/29 06:13:36;;;;;;;2.78;1.50;;;;;;;13.10;53.37;96255.59;4897841;29;20059;-79
2022/05/29 06:16:05;;;;;;;2.30;1.73;;;;;;;13.10;53.27;96260.06;4896855;29;20151;-78
2022/05/29 06:18:32;;;;;;;2.03;1.40;;;;;;;13.06;53.51;96254.41;4898500;29;20049;-78
2022/05/29 06:21:04;;;;;;;3.22;1.38;;;;;;;13.05;53.46;96258.03;4902080;29;20075;-77
2022/05/29 06:23:32;;;;;;;2.87;1.40;;;;;;;13.03;53.30;96256.63;4897166;29;20132;-79
2022/05/29 06:26:02;;;;;;;2.70;1.33;;;;;;;13.01;53.36;96262.09;4896696;29;20283;-78
2022/05/29 06:28:30;;;;;;;4.43;1.52;;;;;;;12.99;54.06;96261.47;4918948;29;20054;-79
2022/05/29 06:30:57;;;;;;;2.13;1.75;;;;;;;13.01;53.74;96258.63;4918455;29;20040;-78
2022/05/29 06:33:26;;;;;;;2.03;1.45;;;;;;;13.02;54.56;96258.44;4907718;29;20115;-79
2022/05/29 06:35:54;;;;;;;1.67;1.15;;;;;;;13.05;53.94;96262.47;4918944;29;20646;-79
2022/05/29 06:38:22;;;;;;;1.17;0.98;;;;;;;13.06;54.78;96264.88;4914579;29;20064;-79
2022/05/29 06:40:50;;;;;;;2.38;1.17;;;;;;;13.08;53.63;96262.06;4900151;29;20054;-78
2022/05/29 06:43:17;;;;;;;2.63;1.52;;;;;;;13.06;53.59;96264.88;4909440;29;20180;-78
2022/05/29 06:45:57;;;;;;;2.85;1.70;;;;;;;13.07;53.74;96266.47;4900568;29;20533;-79
2022/05/29 06:48:24;;;;;;;4.35;1.00;;;;;;;13.10;55.83;96260.84;4909090;29;20056;-79
2022/05/29 06:50:52;;;;;;;1.25;1.15;;;;;;;13.14;54.88;96262.06;4919126;29;20048;-79
2022/05/29 06:53:20;;;;;;;4.68;1.35;;;;;;;13.18;55.82;96262.41;4910612;29;20052;-79
2022/05/29 06:55:55;;;;;;;1.58;1.33;;;;;;;13.20;55.64;96266.44;4899832;29;20060;-79
2022/05/29 06:58:24;;;;;;;2.25;1.13;;;;;;;13.23;54.97;96269.66;4908327;29;20051;-79
2022/05/29 07:09:11;;;;;;;2.35;1.30;;;;;;;13.33;55.45;96268.25;4899841;29;20056;-78
2022/05/29 07:11:43;;;;;;;6.45;1.90;;;;;;;13.30;53.63;96271.28;4915070;29;20058;-79
2022/05/29 07:14:10;;;;;;;3.83;2.00;;;;;;;13.26;54.56;96269.25;4904566;29;20733;-78
2022/05/29 07:16:38;;;;;;;3.67;1.85;;;;;;;13.29;54.97;96268.88;4898905;29;20287;-78
2022/05/29 07:19:06;;;;;;;2.00;1.40;;;;;;;13.31;55.24;96272.09;4900437;29;20048;-78
2022/05/29 07:21:37;;;;;;;3.00;1.70;;;;;;;13.33;55.09;96264.81;4900145;29;20505;-78
2022/05/29 07:24:06;;;;;;;2.30;1.60;;;;;;;13.35;54.72;96274.09;4930308;29;20052;-79
2022/05/29 07:26:34;;;;;;;4.55;1.55;;;;;;;13.36;54.17;96270.47;4934443;29;20366;-79
2022/05/29 07:29:04;;;;;;;2.15;1.63;;;;;;;13.39;54.49;96277.09;4908958;29;20527;-79
2022/05/29 07:31:32;;;;;;;1.65;1.13;;;;;;;13.40;54.11;96273.47;4900244;29;20053;-79
2022/05/29 07:33:59;;;;;;;6.47;2.10;;;;;;;13.41;54.70;96272.47;4911061;29;20428;-79
2022/05/29 07:36:28;;;;;;;3.33;1.50;;;;;;;13.39;53.74;96274.50;4917687;29;20056;-79
2022/05/29 07:38:55;;;;;;;1.70;1.60;;;;;;;13.40;54.44;96278.69;4906056;29;20139;-78
2022/05/29 07:44:11;;;;;;;4.65;1.50;;;;;;;13.41;54.11;96282.94;4882457;29;20060;-79
2022/05/29 07:46:39;;;;;;;3.10;1.50;;;;;;;13.40;54.38;96276.06;4898600;29;20060;-78
2022/05/29 07:49:07;;;;;;;3.08;1.40;;;;;;;13.38;54.18;96286.78;4902465;29;20083;-78
2022/05/29 07:51:41;;;;;;;5.38;1.63;;;;;;;13.36;55.50;96285.41;4899174;29;20053;-79
2022/05/29 07:54:09;;;;;;;3.65;1.50;;;;;;;13.36;55.42;96277.53;4914763;29;20497;-78
2022/05/29 07:56:37;;;;;;;3.05;1.65;;;;;;;13.38;56.28;96293.81;4912613;29;20489;-79
2022/05/29 07:59:04;;;;;;;2.90;1.50;;;;;;;13.39;56.45;96287.59;4917435;29;20070;-78
2022/05/29 08:01:34;;;;;;;3.03;1.60;;;;;;;13.41;56.49;96288.19;4910656;29;20132;-78
2022/05/29 08:04:01;;;;;;;2.50;1.35;;;;;;;13.41;56.26;96296.03;4908014;29;20051;-78
2022/05/29 08:06:29;;;;;;;3.03;1.77;;;;;;;13.41;56.40;96298.66;4911074;29;20059;-79
2022/05/29 08:08:56;;;;;;;4.05;1.63;;;;;;;13.42;57.15;96296.84;4900112;29;20052;-77
2022/05/29 08:11:24;;;;;;;3.00;1.42;;;;;;;13.43;57.39;96309.75;4907838;29;20138;-78
2022/05/29 08:13:53;;;;;;;4.88;2.00;;;;;;;13.43;57.66;96299.25;4915481;29;20044;-79
2022/05/29 08:16:20;;;;;;;4.18;1.90;;;;;;;13.42;57.50;96305.50;4916793;29;20058;-79
2022/05/29 08:18:49;;;;;;;2.85;1.70;;;;;;;13.40;58.02;96307.53;4903139;29;20067;-79
2022/05/29 08:21:17;;;;;;;2.78;1.58;;;;;;;13.38;58.17;96309.53;4898399;29;20053;-79
2022/05/29 08:30:37;;;;;;;5.25;1.70;;;;;;;13.36;58.41;96296.66;4911559;29;20508;-78
2022/05/29 08:32:24;;;;;;;6.50;2.05;;;;;;;13.25;59.42;96299.06;4905496;29;20052;-78
2022/05/29 08:34:53;;;;;;;2.60;1.35;;;;;;;13.18;58.92;96294.69;4917340;29;20134;-78
2022/05/29 08:37:20;;;;;;;5.47;2.03;;;;;;;13.12;58.79;96294.69;4916390;29;20054;-78
2022/05/29 08:39:48;;;;;;;2.85;2.03;;;;;;;13.08;59.25;96294.28;4929472;23;20144;-79
2022/05/29 08:42:19;;;;;;;9.75;7.32;;;;;;;13.08;60.13;96303.97;4906260;29;20059;-79
2022/05/29 08:44:48;;;;;;;10.25;7.18;;;;;;;13.10;59.91;96296.72;4906305;29;20144;-79
2022/05/29 08:47:21;;;;;;;5.70;3.38;;;;;;;13.10;59.59;96292.28;4903079;29;20059;-79
2022/05/29 08:49:49;;;;;;;2.90;2.03;;;;;;;13.11;60.31;96293.88;4885966;29;20136;-77
2022/05/29 08:52:34;;;;;;;3.45;1.67;;;;;;;13.17;60.92;96287.81;4895141;29;20057;-80
2022/05/29 08:55:10;;;;;;;3.72;1.88;;;;;;;13.23;59.79;96294.06;4904267;29;20131;-77
2022/05/29 08:57:58;;;;;;;2.38;1.88;;;;;;;13.25;59.02;96293.84;4885463;29;20144;-78
2022/05/29 09:00:35;;;;;;;2.45;1.55;;;;;;;13.28;60.12;96291.66;4891642;29;20139;-81
2022/05/29 09:03:30;;;;;;;2.10;1.42;;;;;;;13.33;61.59;96299.69;4908988;29;20051;-79
2022/05/29 09:06:04;;;;;;;3.73;1.67;;;;;;;13.32;58.71;96299.91;4904905;29;20048;-78
2022/05/29 09:08:41;;;;;;;1.45;0.95;;;;;;;13.32;60.88;96307.78;4906337;29;20048;-77
2022/05/29 09:11:16;;;;;;;2.78;1.50;;;;;;;13.30;58.90;96301.94;4905609;29;20053;-77
2022/05/29 09:13:48;;;;;;;2.45;1.50;;;;;;;13.27;58.66;96307.53;4901852;29;20501;-79
2022/05/29 09:16:19;;;;;;;2.07;1.40;;;;;;;13.20;58.41;96312.78;4903148;29;20048;-81
2022/05/29 09:19:00;;;;;;;4.32;1.80;;;;;;;13.18;58.92;96301.72;4902633;29;20458;-78
2022/05/29 09:21:48;;;;;;;2.88;1.63;;;;;;;13.23;60.36;96307.16;4902210;29;20050;-79
2022/05/29 09:24:31;;;;;;;3.38;1.73;;;;;;;13.29;61.01;96305.53;4905029;29;20132;-80
2022/05/29 09:26:59;;;;;;;7.80;2.40;;;;;;;13.30;59.48;96296.69;4899454;29;20052;-78
2022/05/29 09:29:26;;;;;;;5.07;1.90;;;;;;;13.29;60.31;96300.31;4899438;29;20052;-77
2022/05/29 09:31:54;;;;;;;2.75;1.70;;;;;;;13.26;60.19;96291.00;4899306;29;20048;-82
2022/05/29 09:34:22;;;;;;;3.00;2.13;;;;;;;13.18;60.57;96302.53;4899862;29;20056;-80
2022/05/29 09:36:59;;;;;;;3.47;1.80;;;;;;;13.14;61.13;96297.88;4901770;29;20053;-79
2022/05/29 09:39:34;;;;;;;3.00;1.70;;;;;;;13.10;60.62;96296.72;4889548;29;20049;-79
2022/05/29 09:42:05;;;;;;;3.90;1.60;;;;;;;13.06;60.20;96291.06;4901161;29;20067;-82
2022/05/29 09:44:32;;;;;;;6.78;1.15;;;;;;;13.06;59.76;96293.69;4901362;29;20056;-83
2022/05/29 09:49:42;;;;;;;2.63;1.20;;;;;;;12.98;58.20;96288.66;4900856;29;20049;-78
2022/05/29 09:52:13;;;;;;;2.20;1.40;;;;;;;12.91;58.13;96287.88;4906163;29;20049;-83
2022/05/29 09:54:50;;;;;;;1.50;0.90;;;;;;;12.84;58.39;96292.31;4907003;29;20063;-80
2022/05/29 09:57:27;;;;;;;2.53;1.63;;;;;;;12.77;58.13;96295.75;4902948;29;20051;-82
2022/05/29 10:00:01;;;;;;;1.85;1.00;;;;;;;12.72;57.99;96287.69;4903880;29;20586;-79
2022/05/29 10:02:31;;;;;;;1.48;0.95;;;;;;;12.74;57.96;96293.50;4907911;29;20058;-84
2022/05/29 10:04:59;;;;;;;2.78;1.20;;;;;;;12.75;57.97;96284.66;4909241;29;20081;-83
2022/05/29 10:07:34;;;;;;;3.17;1.15;;;;;;;12.77;58.29;96287.88;4907512;29;20056;-82
2022/05/29 10:10:07;;;;;;;2.88;0.95;;;;;;;12.80;57.86;96286.69;4909197;29;20060;-80
2022/05/29 10:12:43;;;;;;;;;;;;;;;12.82;57.23;96294.34;4910572;29;20060;-85
2022/05/29 10:15:16;;;;;;;4.57;1.20;;;;;;;12.77;57.97;96287.09;4910039;29;20311;-80
2022/05/29 10:17:44;;;;;;;2.22;1.00;;;;;;;12.74;57.48;96283.03;4909951;29;20075;-84
2022/05/29 10:20:29;;;;;;;2.92;1.63;;;;;;;12.72;57.30;96289.50;4911194;29;20080;-80
2022/05/29 10:22:58;;;;;;;3.63;1.50;;;;;;;12.72;57.53;96289.50;4908629;29;20052;-82
2022/05/29 10:25:29;;;;;;;2.35;1.30;;;;;;;12.70;57.22;96291.50;4908148;29;20052;-80
2022/05/29 10:28:01;;;;;;;3.08;1.48;;;;;;;12.68;57.29;96281.25;4910828;29;20127;-81
2022/05/29 10:30:32;;;;;;;2.42;1.35;;;;;;;12.71;58.12;96278.22;4914243;29;20553;-82
2022/05/29 10:33:04;;;;;;;5.25;1.77;;;;;;;12.76;58.30;96282.84;4901844;29;20084;-77
2022/05/29 10:35:33;;;;;;;3.33;1.23;;;;;;;12.76;56.90;96277.63;4902616;29;20056;-78
2022/05/29 10:38:15;;;;;;;2.92;1.00;;;;;;;12.68;56.34;96278.66;4903156;29;20056;-81
2022/05/29 10:40:46;;;;;;;14.03;3.17;;;;;;;12.63;57.61;96275.81;4906326;29;20148;-76
2022/05/29 10:43:34;;;;;;;2.47;1.42;;;;;;;12.63;57.84;96270.59;4900004;29;20494;-76
2022/05/29 10:46:04;;;;;;;3.25;1.17;;;;;;;12.63;57.20;96275.81;4902374;29;20132;-84
2022/05/29 10:48:52;;;;;;;2.80;0.90;;;;;;;12.66;57.66;96264.97;4904560;29;20108;-79
2022/05/29 10:51:23;;;;;;;1.92;0.70;;;;;;;12.69;58.06;96264.53;4900310;29;20113;-85
2022/05/29 10:54:11;;;;;;;0.70;0.70;;;;;;;12.76;57.76;96256.69;4892284;29;20080;-78
2022/05/29 10:56:57;;;;;;;1.42;0.52;;;;;;;12.78;56.19;96246.81;4891629;29;20116;-84
2022/05/29 10:59:41;;;;;;;1.13;0.50;;;;;;;12.78;56.19;96255.47;4900501;29;20402;-78
2022/05/29 11:05:28;;;;;;;0.80;0.80;;;;;;;12.83;56.33;96261.91;4909471;29;20059;-86
2022/05/29 11:08:18;;;;;;;0.45;0.45;;;;;;;12.85;56.15;96267.75;4904413;29;20108;-78
2022/05/29 11:11:07;;;;;;;1.27;0.65;;;;;;;12.87;56.93;96265.72;4904132;29;20053;-77
2022/05/29 11:13:51;;;;;;;2.30;1.00;;;;;;;12.90;54.99;96266.13;4904366;29;20055;-76
2022/05/29 11:16:26;;;;;;;3.25;0.85;;;;;;;12.91;54.49;96264.31;4904927;29;20052;-76
2022/05/29 11:19:15;;;;;;;0.88;0.50;;;;;;;12.93;53.80;96268.34;4906252;29;20052;-80
2022/05/29 11:21:53;;;;;;;4.05;1.73;;;;;;;13.02;54.35;96273.34;4905750;29;20120;-78
2022/05/29 11:24:40;;;;;;;1.15;0.75;;;;;;;13.12;53.75;96279.78;4907106;29;20136;-77
2022/05/29 11:27:23;;;;;;;0.57;0.50;;;;;;;13.21;53.59;96272.50;4906382;29;20047;-78
2022/05/29 11:30:05;;;;;;;1.20;0.52;;;;;;;13.30;53.24;96267.88;4902147;29;20064;-77
2022/05/29 11:32:48;;;;;;;0.93;0.43;;;;;;;13.35;51.59;96268.03;4904158;29;20544;-79
2022/05/29 11:35:30;;;;;;;0.47;0.43;;;;;;;13.38;51.31;96267.63;4886197;29;20087;-77
2022/05/29 11:38:12;;;;;;;0.50;0.50;;;;;;;13.42;52.12;96271.44;4893952;29;20051;-76
2022/05/29 11:40:45;;;;;;;1.40;0.88;;;;;;;13.50;51.61;96265.97;4904411;29;20053;-77
2022/05/29 11:43:22;;;;;;;0.88;0.35;;;;;;;13.56;51.54;96275.63;4890421;29;20058;-77
2022/05/29 11:51:41;;;;;;;1.00;0.40;;;;;;;13.68;50.66;96264.47;4888052;29;20068;-78
2022/05/29 11:54:20;;;;;;;0.80;0.30;;;;;;;13.64;50.91;96255.44;4887904;29;20081;-77
2022/05/29 11:56:55;;;;;;;0.80;0.28;;;;;;;13.60;50.82;96258.47;4905329;29;20052;-78
2022/05/29 11:59:33;;;;;;;2.08;0.40;;;;;;;13.57;50.34;96265.94;4906490;29;20052;-78
2022/05/29 12:02:12;;;;;;;1.15;0.68;;;;;;;13.57;50.16;96258.09;4888928;29;20091;-78
2022/05/29 12:04:46;;;;;;;1.15;0.50;;;;;;;13.58;49.98;96263.13;4911276;29;20058;-77
2022/05/29 12:07:19;;;;;;;0.73;0.45;;;;;;;13.59;49.42;96259.47;4911115;29;20159;-78
2022/05/29 12:09:54;;;;;;;1.10;0.40;;;;;;;13.64;50.23;96265.91;4908325;29;20053;-77
2022/05/29 12:12:26;;;;;;;2.58;0.50;;;;;;;13.69;49.99;96268.72;4908212;29;20152;-77
2022/05/29 12:14:59;;;;;;;0.60;0.43;;;;;;;13.72;50.12;96263.84;4906199;29;20054;-79
2022/05/29 12:17:32;;;;;;;0.65;0.50;;;;;;;13.76;49.67;96270.28;4907079;29;20083;-78
2022/05/29 12:20:07;;;;;;;0.95;0.40;;;;;;;13.81;49.51;96256.53;4888875;29;20053;-76
2022/05/29 12:22:40;;;;;;;0.30;0.30;;;;;;;13.83;49.61;96264.22;4896194;29;20052;-77
2022/05/29 12:25:25;;;;;;;0.30;0.30;;;;;;;13.85;50.46;96262.97;4906807;29;20540;-78
2022/05/29 12:27:55;;;;;;;0.40;0.40;;;;;;;13.88;51.92;96262.56;4906429;29;20523;-78
2022/05/29 12:30:29;;;;;;;2.03;0.80;;;;;;;13.93;51.61;96265.38;4908265;29;20136;-78
2022/05/29 12:33:03;;;;;;;1.73;0.43;;;;;;;13.97;52.28;96266.56;4907324;29;20048;-77
2022/05/29 12:35:35;;;;;;;1.15;0.60;;;;;;;14.01;52.92;96266.91;4906266;29;20698;-78